createdAt,value
2023-04-09T00:01:10.523Z,18.10
2023-04-09T00:03:39.400Z,15.73
2023-04-09T00:06:07.126Z,15.05
2023-04-09T00:08:34.886Z,17.20
2023-04-09T00:11:02.576Z,16.20
2023-04-09T00:16:00.389Z,15.27
2023-04-09T00:18:27.854Z,17.80
2023-04-09T00:20:55.545Z,15.98
2023-04-09T00:23:23.095Z,13.20
2023-04-09T00:25:50.556Z,14.30
2023-04-09T00:28:18.124Z,15.77
2023-04-09T00:30:46.036Z,16.00
2023-04-09T00:33:13.533Z,15.18
2023-04-09T00:35:41.350Z,16.17
2023-04-09T00:38:08.839Z,15.98
2023-04-09T00:40:36.499Z,14.98
2023-04-09T00:43:04.272Z,16.13
2023-04-09T00:45:32.085Z,17.05
2023-04-09T00:47:59.946Z,17.55
2023-04-09T00:50:27.547Z,13.35
2023-04-09T00:52:55.171Z,15.27
2023-04-09T00:55:23.228Z,17.58
2023-04-09T00:57:51.044Z,16.15
2023-04-09T01:00:18.576Z,18.10
2023-04-09T01:02:46.279Z,16.50
2023-04-09T01:05:14.794Z,16.33
2023-04-09T01:08:04.128Z,16.92
2023-04-09T01:10:49.369Z,14.38
2023-04-09T01:13:24.777Z,17.13
2023-04-09T01:15:59.741Z,16.85
2023-04-09T01:18:43.346Z,16.00
2023-04-09T01:21:14.726Z,16.92
2023-04-09T01:24:06.906Z,21.60
2023-04-09T01:27:12.949Z,18.13
2023-04-09T01:29:47.789Z,20.20
2023-04-09T01:32:17.548Z,19.00
2023-04-09T01:34:47.995Z,17.45
2023-04-09T01:37:17.181Z,16.55
2023-04-09T01:39:46.518Z,16.13
2023-04-09T01:42:16.177Z,18.15
2023-04-09T01:44:45.690Z,16.02
2023-04-09T01:47:13.819Z,15.60
2023-04-09T01:49:43.716Z,18.60
2023-04-09T01:52:11.852Z,19.63
2023-04-09T01:54:42.112Z,19.30
2023-04-09T01:57:09.549Z,18.85
2023-04-09T01:59:37.000Z,18.20
2023-04-09T02:02:16.534Z,19.40
2023-04-09T02:04:48.951Z,16.80
2023-04-09T02:07:19.789Z,17.20
2023-04-09T02:09:49.091Z,18.45
2023-04-09T02:12:19.449Z,23.17
2023-04-09T02:14:48.645Z,18.85
2023-04-09T02:17:16.376Z,18.92
2023-04-09T02:19:46.211Z,15.82
2023-04-09T02:22:14.109Z,17.30
2023-04-09T02:24:41.741Z,18.50
2023-04-09T02:27:09.838Z,18.85
2023-04-09T02:29:37.781Z,16.80
2023-04-09T02:32:05.450Z,16.15
2023-04-09T02:34:33.063Z,16.42
2023-04-09T02:37:00.591Z,24.13
2023-04-09T02:39:28.190Z,15.57
2023-04-09T02:41:56.548Z,20.35
2023-04-09T02:44:24.333Z,19.10
2023-04-09T02:46:52.962Z,16.35
2023-04-09T02:49:20.647Z,18.10
2023-04-09T02:51:48.134Z,22.30
2023-04-09T02:54:15.653Z,17.92
2023-04-09T02:56:43.189Z,18.48
2023-04-09T02:59:11.190Z,17.75
2023-04-09T03:01:38.973Z,18.38
2023-04-09T03:04:06.594Z,20.95
2023-04-09T03:06:34.661Z,19.90
2023-04-09T03:09:02.219Z,21.85
2023-04-09T03:11:30.104Z,21.77
2023-04-09T03:13:57.618Z,21.25
2023-04-09T03:16:26.620Z,21.92
2023-04-09T03:18:54.543Z,23.98
2023-04-09T03:21:22.179Z,21.77
2023-04-09T03:23:49.696Z,18.92
2023-04-09T03:26:17.254Z,21.02
2023-04-09T03:28:44.772Z,20.00
2023-04-09T03:31:14.245Z,22.45
2023-04-09T03:33:41.783Z,21.05
2023-04-09T03:36:09.301Z,20.42
2023-04-09T03:38:37.140Z,19.92
2023-04-09T03:41:04.681Z,21.90
2023-04-09T03:43:32.121Z,22.92
2023-04-09T03:45:59.588Z,20.27
2023-04-09T03:48:27.097Z,20.67
2023-04-09T03:50:54.640Z,23.40
2023-04-09T03:53:22.135Z,22.58
2023-04-09T03:55:49.621Z,20.30
2023-04-09T03:58:17.239Z,25.85
2023-04-09T04:00:44.799Z,29.23
2023-04-09T04:03:14.809Z,22.40
2023-04-09T04:05:42.793Z,22.98
2023-04-09T04:08:10.290Z,26.38
2023-04-09T04:10:37.757Z,24.77
2023-04-09T04:13:08.588Z,18.92
2023-04-09T04:15:44.972Z,18.00
2023-04-09T04:18:12.487Z,22.58
2023-04-09T04:20:40.223Z,19.55
2023-04-09T04:23:07.840Z,23.80
2023-04-09T04:25:35.323Z,22.23
2023-04-09T04:28:02.786Z,23.15
2023-04-09T04:30:30.368Z,24.77
2023-04-09T04:32:57.885Z,22.60
2023-04-09T04:35:25.478Z,22.55
2023-04-09T04:37:52.978Z,26.95
2023-04-09T04:40:20.535Z,25.00
2023-04-09T04:42:48.046Z,23.02
2023-04-09T04:45:15.638Z,22.90
2023-04-09T04:47:43.129Z,21.73
2023-04-09T04:50:11.045Z,23.05
2023-04-09T04:52:40.669Z,21.23
2023-04-09T04:55:08.464Z,23.58
2023-04-09T04:57:35.964Z,22.50
2023-04-09T05:00:03.684Z,21.83
2023-04-09T05:02:31.393Z,19.85
2023-04-09T05:04:58.959Z,18.52
2023-04-09T05:07:26.611Z,22.67
2023-04-09T05:09:54.191Z,23.88
2023-04-09T05:12:21.674Z,21.63
2023-04-09T05:14:49.188Z,20.55
2023-04-09T05:17:16.895Z,21.73
2023-04-09T05:19:44.540Z,23.85
2023-04-09T05:22:12.099Z,25.23
2023-04-09T05:24:39.582Z,27.00
2023-04-09T05:27:07.100Z,24.73
2023-04-09T05:29:34.589Z,21.73
2023-04-09T05:32:02.428Z,18.60
2023-04-09T05:34:29.894Z,20.55
2023-04-09T05:36:57.323Z,18.33
2023-04-09T05:39:24.779Z,19.98
2023-04-09T05:41:52.816Z,18.77
2023-04-09T05:44:20.402Z,23.00
2023-04-09T05:46:47.886Z,20.70
2023-04-09T05:49:15.328Z,18.85
2023-04-09T05:51:43.637Z,23.70
2023-04-09T05:54:11.110Z,21.77
2023-04-09T05:56:38.637Z,23.98
2023-04-09T05:59:06.164Z,24.63
2023-04-09T06:01:33.753Z,24.52
2023-04-09T06:04:01.627Z,21.98
2023-04-09T06:06:29.665Z,23.65
2023-04-09T06:08:57.451Z,20.75
2023-04-09T06:11:25.033Z,24.50
2023-04-09T06:13:52.898Z,22.52
2023-04-09T06:16:20.959Z,21.45
2023-04-09T06:18:50.728Z,24.90
2023-04-09T06:21:18.220Z,18.55
2023-04-09T06:23:45.919Z,19.45
2023-04-09T06:26:13.364Z,24.38
2023-04-09T06:28:40.808Z,22.67
2023-04-09T06:31:08.444Z,20.30
2023-04-09T06:33:35.931Z,19.70
2023-04-09T06:36:03.444Z,23.80
2023-04-09T06:38:30.980Z,28.95
2023-04-09T06:40:58.480Z,24.80
2023-04-09T06:43:26.278Z,19.35
2023-04-09T06:45:53.738Z,18.80
2023-04-09T06:48:21.488Z,21.35
2023-04-09T06:50:49.422Z,19.30
2023-04-09T06:53:17.857Z,20.25
2023-04-09T06:55:45.360Z,15.85
2023-04-09T06:58:12.856Z,21.05
2023-04-09T07:00:40.571Z,16.58
2023-04-09T07:03:09.679Z,18.17
2023-04-09T07:05:37.322Z,15.75
2023-04-09T07:08:05.221Z,16.17
2023-04-09T07:10:32.879Z,16.20
2023-04-09T07:13:00.761Z,16.25
2023-04-09T07:15:28.227Z,17.98
2023-04-09T07:17:55.722Z,15.23
2023-04-09T07:20:23.283Z,17.48
2023-04-09T07:22:50.837Z,18.92
2023-04-09T07:25:18.410Z,15.07
2023-04-09T07:27:46.117Z,16.52
2023-04-09T07:30:13.731Z,15.90
2023-04-09T07:32:41.298Z,17.92
2023-04-09T07:35:12.696Z,19.48
2023-04-09T07:37:40.279Z,16.35
2023-04-09T07:40:08.684Z,17.08
2023-04-09T07:42:40.925Z,13.73
2023-04-09T07:45:08.988Z,15.83
2023-04-09T07:47:36.527Z,13.95
2023-04-09T07:50:04.541Z,11.98
2023-04-09T07:52:32.017Z,19.48
2023-04-09T07:54:59.705Z,19.65
2023-04-09T07:57:27.832Z,17.20
2023-04-09T07:59:55.807Z,15.13
2023-04-09T08:02:24.387Z,13.93
2023-04-09T08:04:52.062Z,12.88
2023-04-09T08:07:19.637Z,15.75
2023-04-09T08:09:47.320Z,16.10
2023-04-09T08:12:14.942Z,15.35
2023-04-09T08:14:42.438Z,13.98
2023-04-09T08:17:09.983Z,10.45
2023-04-09T08:19:40.446Z,9.63
2023-04-09T08:22:09.212Z,10.57
2023-04-09T08:24:37.222Z,12.65
2023-04-09T08:27:04.865Z,10.23
2023-04-09T08:29:32.346Z,12.00
2023-04-09T08:31:59.941Z,10.77
2023-04-09T08:34:27.624Z,11.15
2023-04-09T08:36:55.097Z,14.57
2023-04-09T08:39:22.542Z,15.48
2023-04-09T08:41:52.237Z,10.02
2023-04-09T08:44:19.694Z,13.90
2023-04-09T08:46:47.277Z,12.07
2023-04-09T08:49:15.009Z,11.23
2023-04-09T08:51:46.801Z,10.38
2023-04-09T08:54:17.436Z,11.45
2023-04-09T08:56:44.969Z,9.90
2023-04-09T08:59:17.461Z,12.80
2023-04-09T09:01:46.970Z,16.73
2023-04-09T09:04:14.592Z,13.07
2023-04-09T09:06:42.727Z,11.65
2023-04-09T09:09:13.232Z,23.85
2023-04-09T09:11:42.988Z,13.02
2023-04-09T09:14:12.637Z,13.82
2023-04-09T09:16:45.112Z,9.65
2023-04-09T09:19:34.028Z,12.43
2023-04-09T09:22:08.695Z,10.80
2023-04-09T09:24:50.378Z,14.25
2023-04-09T09:27:40.761Z,13.02
2023-04-09T09:30:10.769Z,12.25
2023-04-09T09:32:38.441Z,14.50
2023-04-09T09:35:07.477Z,16.48
2023-04-09T09:37:35.098Z,13.77
2023-04-09T09:40:03.062Z,14.35
2023-04-09T09:42:30.710Z,14.32
2023-04-09T09:44:59.795Z,13.35
2023-04-09T09:47:29.626Z,13.52
2023-04-09T09:49:57.223Z,14.32
2023-04-09T09:52:27.293Z,17.48
2023-04-09T09:54:56.135Z,14.00
2023-04-09T09:57:26.402Z,14.57
2023-04-09T10:00:02.403Z,15.35
2023-04-09T10:02:41.026Z,11.20
2023-04-09T10:05:09.683Z,14.52
2023-04-09T10:07:38.894Z,20.38
2023-04-09T10:10:09.604Z,13.02
2023-04-09T10:12:37.251Z,11.20
2023-04-09T10:15:06.538Z,13.45
2023-04-09T10:17:34.115Z,15.77
2023-04-09T10:20:26.544Z,14.70
2023-04-09T10:22:55.135Z,10.73
2023-04-09T10:25:22.748Z,12.38
2023-04-09T10:28:03.635Z,16.38
2023-04-09T10:30:36.270Z,13.70
2023-04-09T10:33:14.350Z,13.93
2023-04-09T10:35:42.596Z,17.70
2023-04-09T10:38:10.975Z,10.77
2023-04-09T10:40:56.899Z,11.20
2023-04-09T10:43:24.548Z,23.10
2023-04-09T10:45:54.506Z,12.55
2023-04-09T10:48:22.314Z,11.63
2023-04-09T10:50:54.313Z,12.55
2023-04-09T10:53:26.440Z,16.52
2023-04-09T10:55:54.576Z,14.90
2023-04-09T10:58:25.173Z,16.30
2023-04-09T11:00:53.967Z,11.00
2023-04-09T11:03:24.743Z,15.02
2023-04-09T11:06:01.483Z,12.15
2023-04-09T11:08:31.342Z,12.63
2023-04-09T11:11:01.998Z,9.65
2023-04-09T11:13:31.669Z,11.02
2023-04-09T11:16:01.620Z,14.57
2023-04-09T11:18:30.931Z,12.18
2023-04-09T11:21:05.141Z,11.05
2023-04-09T11:23:33.485Z,9.32
2023-04-09T11:26:02.228Z,13.02
2023-04-09T11:28:29.890Z,12.55
2023-04-09T11:30:57.476Z,13.00
2023-04-09T11:33:33.475Z,11.10
2023-04-09T11:36:01.915Z,10.32
2023-04-09T11:38:32.026Z,13.30
2023-04-09T11:40:59.774Z,9.43
2023-04-09T11:43:27.309Z,11.57
2023-04-09T11:45:56.509Z,10.82
2023-04-09T11:48:25.254Z,13.68
2023-04-09T11:50:53.257Z,11.07
2023-04-09T11:53:22.171Z,27.30
2023-04-09T11:55:53.716Z,21.42
2023-04-09T11:58:26.514Z,13.10
2023-04-09T12:00:56.625Z,16.88
2023-04-09T12:03:33.159Z,13.25
2023-04-09T12:06:03.132Z,10.55
2023-04-09T12:08:31.610Z,12.57
2023-04-09T12:11:09.600Z,11.30
2023-04-09T12:13:37.271Z,13.13
2023-04-09T12:16:05.911Z,13.63
2023-04-09T12:18:37.672Z,15.15
2023-04-09T12:21:06.482Z,14.80
2023-04-09T12:23:33.998Z,11.18
2023-04-09T12:26:02.517Z,11.80
2023-04-09T12:28:33.026Z,10.38
2023-04-09T12:31:00.677Z,12.27
2023-04-09T12:33:28.165Z,15.85
2023-04-09T12:35:58.517Z,11.95
2023-04-09T12:38:26.997Z,11.52
2023-04-09T12:40:54.694Z,15.52
2023-04-09T12:43:22.249Z,13.00
2023-04-09T12:45:49.850Z,17.33
2023-04-09T12:48:17.418Z,14.80
2023-04-09T12:50:45.174Z,15.80
2023-04-09T12:53:12.687Z,14.77
2023-04-09T12:55:42.284Z,14.77
2023-04-09T12:58:10.546Z,14.35
2023-04-09T13:00:38.040Z,12.13
2023-04-09T13:03:05.645Z,11.75
2023-04-09T13:05:35.774Z,13.15
2023-04-09T13:08:05.912Z,14.98
2023-04-09T13:10:34.123Z,18.23
2023-04-09T13:13:01.844Z,12.57
2023-04-09T13:15:29.375Z,18.08
2023-04-09T13:17:57.530Z,13.05
2023-04-09T13:20:25.271Z,14.65
2023-04-09T13:22:52.972Z,14.90
2023-04-09T13:25:20.754Z,15.10
2023-04-09T13:27:48.270Z,26.02
2023-04-09T13:30:16.319Z,16.90
2023-04-09T13:32:44.061Z,14.57
2023-04-09T13:35:11.703Z,15.20
2023-04-09T13:37:39.280Z,18.98
2023-04-09T13:40:09.408Z,11.85
2023-04-09T13:42:37.853Z,19.30
2023-04-09T13:45:07.237Z,15.50
2023-04-09T13:47:35.281Z,19.30
2023-04-09T13:50:03.899Z,15.80
2023-04-09T13:52:32.355Z,13.32
2023-04-09T13:54:59.842Z,12.88
2023-04-09T13:57:27.588Z,17.83
2023-04-09T13:59:55.192Z,14.23
2023-04-09T14:02:24.153Z,16.02
2023-04-09T14:04:52.768Z,12.43
2023-04-09T14:07:20.192Z,12.27
2023-04-09T14:09:47.726Z,13.18
2023-04-09T14:12:16.216Z,18.63
2023-04-09T14:14:46.790Z,14.40
2023-04-09T14:17:14.383Z,14.43
2023-04-09T14:19:42.150Z,14.20
2023-04-09T14:22:10.597Z,15.77
2023-04-09T14:24:40.274Z,13.95
2023-04-09T14:27:08.436Z,12.57
2023-04-09T14:29:35.952Z,15.82
2023-04-09T14:32:03.482Z,12.85
2023-04-09T14:34:37.175Z,15.23
2023-04-09T14:37:04.659Z,17.13
2023-04-09T14:39:32.308Z,15.23
2023-04-09T14:41:59.847Z,13.82
2023-04-09T14:44:27.751Z,18.58
2023-04-09T14:46:56.409Z,14.55
2023-04-09T14:49:24.800Z,15.95
2023-04-09T14:51:52.374Z,13.57
2023-04-09T14:54:19.821Z,18.13
2023-04-09T14:56:47.440Z,12.95
2023-04-09T14:59:14.915Z,13.77
2023-04-09T15:01:42.671Z,12.50
2023-04-09T15:04:10.256Z,16.02
2023-04-09T15:06:37.849Z,16.25
2023-04-09T15:09:05.582Z,18.77
2023-04-09T15:11:33.177Z,16.70
2023-04-09T15:14:00.888Z,14.60
2023-04-09T15:16:43.939Z,22.02
2023-04-09T15:19:11.670Z,19.65
2023-04-09T15:21:39.264Z,17.75
2023-04-09T15:24:08.348Z,19.45
2023-04-09T15:26:35.958Z,19.55
2023-04-09T15:29:06.956Z,17.80
2023-04-09T15:31:34.850Z,20.92
2023-04-09T15:34:02.447Z,15.45
2023-04-09T15:36:59.107Z,17.10
2023-04-09T15:39:28.673Z,17.80
2023-04-09T15:41:59.325Z,24.80
2023-04-09T15:44:27.058Z,19.83
2023-04-09T15:46:54.548Z,15.55
2023-04-09T15:49:23.617Z,20.30
2023-04-09T15:51:51.638Z,14.05
2023-04-09T15:54:19.134Z,18.83
2023-04-09T15:56:46.634Z,19.38
2023-04-09T15:59:14.237Z,19.92
2023-04-09T16:01:41.748Z,17.77
2023-04-09T16:04:09.788Z,16.02
2023-04-09T16:06:39.545Z,20.13
2023-04-09T16:09:07.085Z,23.23
2023-04-09T16:11:36.496Z,17.60
2023-04-09T16:14:04.120Z,25.80
2023-04-09T16:16:31.741Z,20.63
2023-04-09T16:19:00.555Z,22.67
2023-04-09T16:21:28.528Z,21.83
2023-04-09T16:23:56.349Z,17.75
2023-04-09T16:26:23.857Z,15.10
2023-04-09T16:28:51.921Z,21.67
2023-04-09T16:31:19.624Z,23.85
2023-04-09T16:33:47.137Z,22.52
2023-04-09T16:36:14.612Z,20.92
2023-04-09T16:38:42.221Z,29.30
2023-04-09T16:41:09.658Z,21.38
2023-04-09T16:43:37.155Z,19.63
2023-04-09T16:46:07.671Z,18.30
2023-04-09T16:48:36.474Z,21.25
2023-04-09T16:51:04.091Z,21.00
2023-04-09T16:53:31.653Z,19.83
2023-04-09T16:55:59.090Z,17.90
2023-04-09T16:58:29.249Z,17.85
2023-04-09T17:00:57.566Z,21.35
2023-04-09T17:03:25.288Z,23.60
2023-04-09T17:05:54.614Z,20.50
2023-04-09T17:08:24.565Z,28.88
2023-04-09T17:10:52.983Z,26.02
2023-04-09T17:13:20.724Z,29.00
2023-04-09T17:15:48.597Z,26.80
2023-04-09T17:18:16.295Z,25.05
2023-04-09T17:20:46.945Z,18.40
2023-04-09T17:23:14.992Z,27.15
2023-04-09T17:25:42.564Z,28.50
2023-04-09T17:28:10.038Z,30.38
2023-04-09T17:30:40.600Z,21.88
2023-04-09T17:33:08.214Z,27.00
2023-04-09T17:35:35.785Z,35.08
2023-04-09T17:38:03.362Z,23.83
2023-04-09T17:40:30.985Z,22.23
2023-04-09T17:42:58.478Z,22.27
2023-04-09T17:45:26.186Z,20.58
2023-04-09T17:47:53.728Z,21.60
2023-04-09T17:50:21.630Z,24.83
2023-04-09T17:52:49.168Z,29.48
2023-04-09T17:55:17.594Z,27.48
2023-04-09T17:57:45.164Z,18.25
2023-04-09T18:00:13.183Z,23.90
2023-04-09T18:02:41.014Z,20.40
2023-04-09T18:05:09.273Z,19.75
2023-04-09T18:07:37.032Z,18.73
2023-04-09T18:10:05.709Z,18.13
2023-04-09T18:12:33.390Z,20.63
2023-04-09T18:15:00.869Z,20.35
2023-04-09T18:17:28.417Z,16.60
2023-04-09T18:19:58.660Z,19.77
2023-04-09T18:22:27.746Z,14.43
2023-04-09T18:24:55.382Z,19.50
2023-04-09T18:27:23.035Z,21.50
2023-04-09T18:29:50.710Z,17.30
2023-04-09T18:32:25.632Z,17.00
2023-04-09T18:34:53.148Z,25.63
2023-04-09T18:37:43.114Z,18.58
2023-04-09T18:40:20.909Z,19.02
2023-04-09T18:42:52.843Z,18.17
2023-04-09T18:45:21.743Z,27.77
2023-04-09T18:47:49.341Z,20.60
2023-04-09T18:50:18.883Z,28.88
2023-04-09T18:52:46.350Z,19.02
2023-04-09T18:55:14.365Z,22.25
2023-04-09T18:57:44.440Z,21.27
2023-04-09T19:00:12.454Z,18.10
2023-04-09T19:02:40.392Z,17.30
2023-04-09T19:05:09.081Z,16.38
2023-04-09T19:07:36.730Z,18.80
2023-04-09T19:10:04.507Z,20.55
2023-04-09T19:12:32.129Z,15.85
2023-04-09T19:15:01.233Z,19.30
2023-04-09T19:17:28.807Z,18.20
2023-04-09T19:19:56.423Z,15.25
2023-04-09T19:22:23.944Z,17.17
2023-04-09T19:24:51.439Z,19.08
2023-04-09T19:27:19.670Z,18.55
2023-04-09T19:29:47.315Z,17.27
2023-04-09T19:32:14.994Z,21.85
2023-04-09T19:34:42.975Z,18.10
2023-04-09T19:37:11.770Z,17.02
2023-04-09T19:39:39.293Z,17.80
2023-04-09T19:42:06.886Z,17.35
2023-04-09T19:44:34.429Z,23.02
2023-04-09T19:47:01.944Z,18.15
2023-04-09T19:49:29.695Z,18.50
2023-04-09T19:51:57.253Z,22.40
2023-04-09T19:54:24.725Z,17.88
2023-04-09T19:56:52.211Z,16.35
2023-04-09T19:59:20.079Z,18.08
2023-04-09T20:01:48.790Z,21.88
2023-04-09T20:04:19.240Z,18.83
2023-04-09T20:06:48.745Z,19.35
2023-04-09T20:09:17.451Z,22.27
2023-04-09T20:11:45.140Z,18.00
2023-04-09T20:14:12.628Z,18.40
2023-04-09T20:16:40.194Z,21.00
2023-04-09T20:19:07.768Z,21.38
2023-04-09T20:21:38.104Z,17.73
2023-04-09T20:24:05.890Z,22.45
2023-04-09T20:26:35.868Z,17.17
2023-04-09T20:29:03.380Z,19.50
2023-04-09T20:31:31.825Z,21.80
2023-04-09T20:33:59.274Z,23.80
2023-04-09T20:36:26.823Z,18.02
2023-04-09T20:38:54.866Z,15.73
2023-04-09T20:41:22.793Z,19.23
2023-04-09T20:43:50.200Z,20.73
2023-04-09T20:46:17.728Z,20.50
2023-04-09T20:48:45.251Z,23.02
2023-04-09T20:51:12.895Z,21.05
2023-04-09T20:53:40.413Z,21.80
2023-04-09T20:56:09.370Z,25.38
2023-04-09T20:58:37.017Z,22.52
2023-04-09T21:01:09.930Z,18.15
2023-04-09T21:03:39.157Z,27.45
2023-04-09T21:06:07.585Z,18.85
2023-04-09T21:08:36.620Z,18.55
2023-04-09T21:11:04.635Z,14.30
2023-04-09T21:13:40.463Z,16.75
2023-04-09T21:16:14.331Z,52.30
2023-04-09T21:18:41.988Z,20.92
2023-04-09T21:21:09.722Z,20.27
2023-04-09T21:23:37.284Z,13.57
2023-04-09T21:26:08.389Z,21.40
2023-04-09T21:28:35.928Z,14.40
2023-04-09T21:31:03.910Z,18.48
2023-04-09T21:33:31.467Z,17.30
2023-04-09T21:35:59.094Z,22.17
2023-04-09T21:38:26.691Z,16.45
2023-04-09T21:40:54.175Z,17.35
2023-04-09T21:43:21.653Z,15.27
2023-04-09T21:45:49.183Z,17.92
2023-04-09T21:48:16.752Z,17.30
2023-04-09T21:50:44.294Z,14.30
2023-04-09T21:53:11.920Z,14.60
2023-04-09T21:55:39.430Z,15.85
2023-04-09T21:58:08.437Z,16.45
2023-04-09T22:00:44.701Z,15.23
2023-04-09T22:03:12.741Z,16.45
2023-04-09T22:05:40.353Z,17.08
2023-04-09T22:08:08.080Z,16.73
2023-04-09T22:10:35.988Z,15.98
2023-04-09T22:13:03.489Z,14.20
2023-04-09T22:15:31.059Z,16.35
2023-04-09T22:17:58.784Z,17.50
2023-04-09T22:20:26.674Z,18.80
2023-04-09T22:22:55.102Z,15.93
2023-04-09T22:25:25.242Z,15.27
2023-04-09T22:27:53.917Z,16.05
2023-04-09T22:30:22.200Z,12.23
2023-04-09T22:32:50.167Z,12.07
2023-04-09T22:35:18.605Z,11.02
2023-04-09T22:37:47.300Z,12.70
2023-04-09T22:40:16.350Z,12.13
2023-04-09T22:42:46.527Z,13.07
2023-04-09T22:45:14.276Z,14.15
2023-04-09T22:47:41.947Z,12.85
2023-04-09T22:50:11.713Z,16.52
2023-04-09T22:52:39.163Z,14.32
2023-04-09T22:55:10.266Z,17.77
2023-04-09T22:57:38.742Z,14.10
2023-04-09T23:00:08.634Z,14.70
2023-04-09T23:02:37.233Z,14.05
2023-04-09T23:05:05.148Z,13.27
2023-04-09T23:07:32.686Z,14.40
2023-04-09T23:10:00.645Z,13.05
2023-04-09T23:12:28.211Z,16.90
2023-04-09T23:14:55.708Z,12.70
2023-04-09T23:17:24.697Z,12.82
2023-04-09T23:19:55.861Z,11.98
2023-04-09T23:22:24.551Z,12.98
2023-04-09T23:24:52.149Z,13.65
2023-04-09T23:27:19.837Z,15.60
2023-04-09T23:29:47.411Z,13.60
2023-04-09T23:32:14.923Z,14.02
2023-04-09T23:34:45.225Z,13.07
2023-04-09T23:37:12.749Z,13.00
2023-04-09T23:39:40.455Z,16.08
2023-04-09T23:42:08.005Z,13.40
2023-04-09T23:44:35.758Z,15.30
2023-04-09T23:47:05.976Z,15.55
2023-04-09T23:49:34.191Z,13.95
2023-04-09T23:52:01.736Z,15.30
2023-04-09T23:54:29.684Z,17.25
2023-04-09T23:56:58.750Z,15.45
2023-04-09T23:59:26.425Z,14.93
